• Join FlightAware (Why Join?)
  • Login
  • US Flag 
08:02PM EDT


 

Airport Tracker/Info


-or-


 

Live Flight TrackerFlight Track Log ✈ UAL845 ✈ 06-May-2012 ✈ KORD - SBGR / GRU

Flight Track Log - Related Links

Times and Time Zones

All times are in EDT time to prevent confusion due to time zone crossing. See the UAL845 flight status page for this flight to view local times or setup timezone preferences in your user account.

Time Position Orientation Groundspeed Altitude Reporting Facility
EDT Latitude Longitude Course Direction KTS MPH feet Rate Location/Type
12:58AM 41.9254 -87.8378 322° Northwest  Level FlightAware Approximate
12:59AM 42.0167 -87.9333 109° East 186 214 2,100  Level Chicago TRACON
01:04AM 41.8883 -87.4253 94° East 332 382 14,000 2,040 Climbing Chicago Center
01:05AM 41.8819 -87.3083 96° East 326 375 15,800 1,500 Climbing Chicago Center
01:06AM 41.8711 -87.1719 95° East 339 390 17,000 1,440 Climbing Chicago Center
01:07AM 41.8622 -87.0275 96° East 369 425 18,700 1,620 Climbing Chicago Center
01:08AM 41.8506 -86.8800 95° East 381 438 20,300 1,620 Climbing Chicago Center
01:09AM 41.8411 -86.7269 95° East 395 455 22,000 1,560 Climbing Chicago Center
01:10AM 41.8311 -86.5714 96° East 407 468 23,500 1,440 Climbing Chicago Center
01:11AM 41.8192 -86.4269 96° East 425 489 24,900 1,200 Climbing Chicago Center
01:12AM 41.8067 -86.2633 97° East 425 489 25,900 1,020 Climbing Chicago Center
01:13AM 41.7914 -86.0967 96° East 437 503 27,000 840 Climbing Chicago Center
01:14AM 41.7778 -85.9164 96° East 454 522 27,600 540 Climbing Chicago Center
01:15AM 41.7639 -85.7333 104° East 479 551 28,100 600 Climbing Chicago Center
01:16AM 41.7308 -85.5517 149° Southeast 495 570 28,800 780 Climbing Chicago Center
01:17AM 41.6022 -85.4481 164° South 524 603 29,700 960 Climbing Chicago Center
01:18AM 41.4669 -85.3953 163° South 526 605 30,800 1,200 Climbing Chicago Center
01:19AM 41.3336 -85.3397 161° South 516 594 32,100 1,080 Climbing Chicago Center
01:20AM 41.2044 -85.2814 163° South 502 578 33,000 420 Climbing Chicago Center
01:21AM 41.0861 -85.2336 166° South 497 572 33,000  Level Chicago Center
01:22AM 40.9531 -85.1897 172° South 497 572 33,000  Level Chicago Center
01:23AM 40.8122 -85.1631 162° South 497 572 33,000  Level Chicago Center
01:24AM 40.6703 -85.1036 162° South 497 572 33,000  Level Chicago Center
01:44AM 38.0996 -84.0608 163° South 490 564 33,000  Level FlightAware ADS-B
01:45AM 38.0224 -84.0308 163° South 491 565 33,000  Level FlightAware ADS-B
01:45AM 37.9342 -83.9966 163° South 492 566 33,000  Level FlightAware ADS-B
01:47AM 37.6592 -83.8902 163° South 491 565 33,000  Level FlightAware ADS-B
01:48AM 37.5580 -83.8513 163° South 489 563 33,000  Level FlightAware ADS-B
01:49AM 37.4923 -83.8261 163° South 490 564 33,000  Level FlightAware ADS-B
01:49AM 37.4242 -83.8000 163° South 490 564 33,000  Level FlightAware ADS-B
01:50AM 37.3580 -83.7747 163° South 491 565 33,000  Level FlightAware ADS-B
01:50AM 37.2841 -83.7465 163° South 491 565 33,000  Level FlightAware ADS-B
01:51AM 37.2184 -83.7215 163° South 491 565 33,000  Level FlightAware ADS-B
01:51AM 37.1524 -83.6964 163° South 492 566 33,000  Level FlightAware ADS-B
01:52AM 37.0740 -83.6667 163° South 491 565 33,000  Level FlightAware ADS-B
01:52AM 37.0083 -83.6419 163° South 491 565 33,000  Level FlightAware ADS-B
01:53AM 36.9424 -83.6169 163° South 491 565 33,000  Level FlightAware ADS-B
01:53AM 36.8768 -83.5922 163° South 492 566 33,000  Level FlightAware ADS-B
01:54AM 36.8097 -83.5670 163° South 493 567 33,000  Level FlightAware ADS-B
01:54AM 36.7433 -83.5420 163° South 493 567 33,000  Level FlightAware ADS-B
01:55AM 36.6773 -83.5172 163° South 493 567 33,000  Level FlightAware ADS-B
01:55AM 36.6117 -83.4926 163° South 495 570 33,000  Level FlightAware ADS-B
01:56AM 36.5439 -83.4674 163° South 495 570 33,000  Level FlightAware ADS-B
01:56AM 36.4771 -83.4424 163° South 496 571 33,000  Level FlightAware ADS-B
01:57AM 36.4098 -83.4174 163° South 497 572 33,000  Level FlightAware ADS-B
01:57AM 36.3429 -83.3925 163° South 498 573 33,000  Level FlightAware ADS-B
01:58AM 36.2760 -83.3677 163° South 498 573 33,000  Level FlightAware ADS-B
01:59AM 36.1995 -83.3393 163° South 500 575 33,000  Level FlightAware ADS-B
01:59AM 36.1320 -83.3144 163° South 501 577 33,000 360 Level FlightAware ADS-B
02:00AM 36.0629 -83.2890 163° South 500 575 33,400 960 Climbing FlightAware ADS-B
02:00AM 35.9964 -83.2645 163° South 497 572 34,000 960 Climbing FlightAware ADS-B
02:01AM 35.9288 -83.2396 163° South 497 572 34,400 780 Climbing FlightAware ADS-B
02:01AM 35.8617 -83.2150 164° South 498 573 34,800 540 Climbing FlightAware ADS-B
02:02AM 35.7943 -83.1904 163° South 499 574 35,000 180 Climbing FlightAware ADS-B
02:02AM 35.7272 -83.1658 163° South 499 574 35,000  Level FlightAware ADS-B
02:03AM 35.6608 -83.1415 163° South 499 574 35,000  Level FlightAware ADS-B
02:03AM 35.5933 -83.1169 164° South 500 575 35,000  Level FlightAware ADS-B
02:04AM 35.5258 -83.0924 164° South 499 574 35,000  Level FlightAware ADS-B
02:04AM 35.4577 -83.0677 163° South 498 573 35,000  Level FlightAware ADS-B
02:05AM 35.3901 -83.0431 164° South 498 573 35,000  Level FlightAware ADS-B
02:05AM 35.3212 -83.0182 164° South 497 572 35,000  Level FlightAware ADS-B
02:06AM 35.2545 -82.9942 164° South 498 573 35,000  Level FlightAware ADS-B
02:06AM 35.2238 -82.9832 163° South 498 573 35,000  Level FlightAware ADS-B
02:06AM 35.1700 -82.9637 164° South 499 574 35,000  Level FlightAware ADS-B
02:07AM 35.1173 -82.9448 164° South 500 575 35,000  Level FlightAware ADS-B
02:07AM 35.0829 -82.9324 164° South 499 574 35,000  Level FlightAware ADS-B
02:07AM 35.0157 -82.9083 164° South 501 577 35,000  Level FlightAware ADS-B
02:08AM 34.9534 -82.8859 164° South 502 578 35,000  Level FlightAware ADS-B
02:08AM 34.8801 -82.8597 164° South 503 579 35,000  Level FlightAware ADS-B
02:09AM 34.8128 -82.8357 164° South 503 579 35,000  Level FlightAware ADS-B
02:09AM 34.7438 -82.8111 164° South 503 579 35,000  Level FlightAware ADS-B
02:10AM 34.6760 -82.7870 164° South 503 579 35,000  Level FlightAware ADS-B
02:11AM 34.6031 -82.7611 164° South 503 579 35,000  Level FlightAware ADS-B
02:11AM 34.5341 -82.7366 164° South 502 578 35,000  Level FlightAware ADS-B
02:12AM 34.4672 -82.7129 164° South 502 578 35,000  Level FlightAware ADS-B
02:25AM 32.6189 -82.0761 164° South 528 608 35,000  Level Jacksonville Center
02:28AM 32.2297 -81.9469 164° South 499 574 35,000  Level Jacksonville Center
02:29AM 32.0792 -81.8947 164° South 504 580 35,000  Level Jacksonville Center
02:30AM 31.9578 -81.8544 165° South 498 573 35,000  Level Jacksonville Center
02:31AM 31.8111 -81.8072 164° South 498 573 35,000  Level Jacksonville Center
02:32AM 31.6772 -81.7622 164° South 498 573 35,000  Level Jacksonville Center
02:33AM 31.5597 -81.7222 164° South 498 573 35,000  Level Jacksonville Center
02:34AM 31.4133 -81.6731 164° South 498 573 35,000 -60 Level Jacksonville Center
02:35AM 31.2769 -81.6286 164° South 498 573 34,900 -60 Descending Jacksonville Center
02:36AM 31.1450 -81.5842 164° South 498 573 34,900  Level Jacksonville Center
02:42AM 30.3508 -81.3281 165° South 496 571 34,900  Level Jacksonville Center
02:43AM 30.2147 -81.2844 165° South 496 571 35,000  Climbing Jacksonville Center
02:44AM 30.0847 -81.2433 162° South 496 571 34,900 -60 Descending Jacksonville Center
02:45AM 29.9503 -81.1931 157° South 496 571 34,900  Level Jacksonville Center
02:46AM 29.8222 -81.1306 158° South 501 577 34,900  Level Jacksonville Center
02:48AM 29.6103 -81.0322 158° South 515 593 34,900  Level Miami Center
02:49AM 29.4828 -80.9725 155° Southeast 509 586 35,000  Climbing Miami Center
02:50AM 29.3697 -80.9133 158° South 504 580 34,900  Descending Miami Center
02:51AM 29.2381 -80.8514 157° South 509 586 35,000  Climbing Miami Center
02:52AM 29.1083 -80.7897 157° South 509 586 35,000 -60 Level Miami Center
02:53AM 28.9789 -80.7258 158° South 509 586 34,900  Descending Miami Center
02:54AM 28.8428 -80.6619 158° South 496 571 35,000  Climbing Miami Center
02:55AM 28.7253 -80.6081 157° South 496 571 35,000  Level Miami Center
02:56AM 28.5956 -80.5447 158° South 506 582 35,000  Level Miami Center
02:57AM 28.4533 -80.4786 157° South 506 582 35,000  Level Miami Center
02:58AM 28.3256 -80.4156 158° South 506 582 35,000  Level Miami Center
02:59AM 28.1956 -80.3550 157° South 506 582 35,000  Level Miami Center
03:00AM 28.0778 -80.2994 157° South 506 582 35,000  Level Miami Center
03:01AM 27.9519 -80.2392 159° South 506 582 35,000 -60 Level Miami Center
03:02AM 27.8156 -80.1789 158° South 511 588 34,900  Descending Miami Center
03:03AM 27.6856 -80.1189 157° South 511 588 35,000  Climbing Miami Center
03:04AM 27.5572 -80.0589 158° South 506 582 35,000  Level Miami Center
03:05AM 27.4250 -79.9992 157° South 506 582 35,000 -60 Level Miami Center
03:06AM 27.2928 -79.9347 157° South 511 588 34,900 180 Descending Miami Center
03:07AM 27.1500 -79.8656 159° South 511 588 35,400 660 Climbing Miami Center
03:08AM 27.0197 -79.8086 157° South 511 588 36,300 780 Climbing Miami Center
03:09AM 26.8894 -79.7472 159° South 511 588 37,000 300 Climbing Miami Center
03:10AM 26.7611 -79.6928 157° South 498 573 37,000 -60 Level Miami Center
03:11AM 26.6328 -79.6317 157° South 498 573 36,900  Descending Miami Center
03:12AM 26.5167 -79.5778 158° South 498 573 37,000  Climbing Miami Center
03:13AM 26.3778 -79.5144 158° South 491 565 37,000  Level Miami Center
03:14AM 26.2514 -79.4583 158° South 491 565 37,000 -60 Level Miami Center
03:15AM 26.1208 -79.3997 157° South 491 565 36,900  Descending Miami Center
03:16AM 25.9967 -79.3417 159° South 491 565 37,000  Climbing Miami Center
03:17AM 25.8681 -79.2858 158° South 491 565 36,900  Descending Miami Center
03:18AM 25.7394 -79.2281 158° South 497 572 37,000  Climbing Miami Center
03:19AM 25.6169 -79.1725 158° South 490 564 36,900  Descending Miami Center
03:20AM 25.4883 -79.1150 158° South 490 564 37,000  Climbing Miami Center
03:21AM 25.3617 -79.0575 159° South 490 564 36,900 -60 Descending Miami Center
03:22AM 25.2331 -79.0022 158° South 495 570 36,900  Level Miami Center
03:23AM 25.1064 -78.9450 160° South 495 570 36,900  Level Miami Center
03:24AM 24.9858 -78.8969 157° South 493 567 37,000  Climbing Miami Center
03:25AM 24.8611 -78.8400 158° South 498 573 37,000  Level Miami Center
03:26AM 24.7303 -78.7831 157° South 498 573 37,000 -60 Level Miami Center
03:27AM 24.5892 -78.7169 158° South 499 574 36,900  Descending Miami Center
03:28AM 24.4603 -78.6600 157° South 499 574 37,000  Climbing Miami Center
03:29AM 24.3314 -78.5989 157° South 499 574 36,900  Descending Miami Center
03:32AM 23.9383 -78.4139 331° Northwest 509 586 37,000  Climbing Miami Center
03:36AM 25.2037 -79.1937 151° Southeast  Level FlightAware Approximate
03:39AM 24.1479 -78.5519 142° Southeast  Level FlightAware Approximate
03:40AM 24.0413 -78.4599 142° Southeast  Level FlightAware Approximate
03:41AM 23.9347 -78.3681 143° Southeast  Level FlightAware Approximate
03:42AM 23.8257 -78.2798 143° Southeast  Level FlightAware Approximate
03:43AM 23.7166 -78.1917 144° Southeast  Level FlightAware Approximate
03:44AM 23.6075 -78.1037 144° Southeast  Level FlightAware Approximate
03:45AM 23.4983 -78.0158 144° Southeast  Level FlightAware Approximate
03:46AM 23.3891 -77.9281 144° Southeast  Level FlightAware Approximate
03:47AM 23.2799 -77.8405 144° Southeast  Level FlightAware Approximate
03:48AM 23.1705 -77.7531 144° Southeast  Level FlightAware Approximate
03:49AM 23.0612 -77.6658 144° Southeast  Level FlightAware Approximate
03:50AM 22.9518 -77.5787 144° Southeast  Level FlightAware Approximate
03:51AM 22.8423 -77.4917 144° Southeast  Level FlightAware Approximate
03:52AM 22.7328 -77.4048 144° Southeast  Level FlightAware Approximate
03:53AM 22.6233 -77.3181 144° Southeast  Level FlightAware Approximate
03:54AM 22.5137 -77.2315 144° Southeast  Level FlightAware Approximate
03:55AM 22.4041 -77.1450 144° Southeast  Level FlightAware Approximate
03:56AM 22.2944 -77.0587 144° Southeast  Level FlightAware Approximate
03:57AM 22.1846 -76.9725 144° Southeast  Level FlightAware Approximate
03:58AM 22.0749 -76.8865 144° Southeast  Level FlightAware Approximate
03:59AM 21.9650 -76.8006 144° Southeast  Level FlightAware Approximate
04:00AM 21.8552 -76.7148 144° Southeast  Level FlightAware Approximate
04:01AM 21.7453 -76.6292 144° Southeast  Level FlightAware Approximate
04:02AM 21.6353 -76.5437 144° Southeast  Level FlightAware Approximate
04:03AM 21.5253 -76.4583 144° Southeast  Level FlightAware Approximate
04:04AM 21.4153 -76.3730 144° Southeast  Level FlightAware Approximate
04:05AM 21.3052 -76.2879 144° Southeast  Level FlightAware Approximate
04:06AM 21.1951 -76.2029 144° Southeast  Level FlightAware Approximate
04:07AM 21.0849 -76.1180 144° Southeast  Level FlightAware Approximate
04:08AM 20.9747 -76.0333 144° Southeast  Level FlightAware Approximate
04:09AM 20.8644 -75.9487 144° Southeast  Level FlightAware Approximate
04:10AM 20.7541 -75.8642 144° Southeast  Level FlightAware Approximate
04:11AM 20.6438 -75.7798 144° Southeast  Level FlightAware Approximate
04:12AM 20.5334 -75.6956 144° Southeast  Level FlightAware Approximate
04:13AM 20.4230 -75.6114 144° Southeast  Level FlightAware Approximate
04:14AM 20.3125 -75.5274 145° Southeast  Level FlightAware Approximate
04:15AM 20.1942 -75.4376 145° Southeast  Level FlightAware Approximate
04:16AM 20.0759 -75.3480 145° Southeast  Level FlightAware Approximate
04:17AM 19.9575 -75.2584 145° Southeast  Level FlightAware Approximate
04:18AM 19.8391 -75.1690 145° Southeast  Level FlightAware Approximate
04:19AM 19.7206 -75.0798 145° Southeast  Level FlightAware Approximate
04:20AM 19.6021 -74.9906 145° Southeast  Level FlightAware Approximate
04:21AM 19.4835 -74.9016 145° Southeast  Level FlightAware Approximate
04:22AM 19.3649 -74.8128 145° Southeast  Level FlightAware Approximate
04:23AM 19.2463 -74.7240 145° Southeast  Level FlightAware Approximate
04:24AM 19.1276 -74.6354 145° Southeast  Level FlightAware Approximate
04:25AM 19.0089 -74.5469 145° Southeast  Level FlightAware Approximate
04:26AM 18.8901 -74.4586 145° Southeast  Level FlightAware Approximate
04:27AM 18.7712 -74.3703 145° Southeast  Level FlightAware Approximate
04:28AM 18.6524 -74.2822 145° Southeast  Level FlightAware Approximate
04:29AM 18.5335 -74.1942 145° Southeast  Level FlightAware Approximate
04:30AM 18.4146 -74.1064 145° Southeast  Level FlightAware Approximate
04:31AM 18.2956 -74.0186 145° Southeast  Level FlightAware Approximate
04:32AM 18.1765 -73.9310 145° Southeast  Level FlightAware Approximate
04:33AM 18.0575 -73.8435 145° Southeast  Level FlightAware Approximate
04:34AM 17.9384 -73.7561 145° Southeast  Level FlightAware Approximate
04:35AM 17.8193 -73.6688 145° Southeast  Level FlightAware Approximate
04:36AM 17.7001 -73.5817 145° Southeast  Level FlightAware Approximate
04:37AM 17.5809 -73.4947 145° Southeast  Level FlightAware Approximate
04:38AM 17.4616 -73.4077 145° Southeast  Level FlightAware Approximate
04:39AM 17.3423 -73.3209 145° Southeast  Level FlightAware Approximate
04:40AM 17.2230 -73.2342 145° Southeast  Level FlightAware Approximate
04:41AM 17.1036 -73.1477 145° Southeast  Level FlightAware Approximate
04:42AM 16.9842 -73.0612 146° Southeast  Level FlightAware Approximate
04:43AM 16.8640 -72.9760 146° Southeast  Level FlightAware Approximate
04:44AM 16.7437 -72.8909 146° Southeast  Level FlightAware Approximate
04:45AM 16.6235 -72.8060 146° Southeast  Level FlightAware Approximate
04:46AM 16.5032 -72.7211 146° Southeast  Level FlightAware Approximate
04:47AM 16.3828 -72.6364 146° Southeast  Level FlightAware Approximate
04:48AM 16.2624 -72.5517 146° Southeast  Level FlightAware Approximate
04:49AM 16.1420 -72.4671 146° Southeast  Level FlightAware Approximate
04:50AM 16.0215 -72.3827 146° Southeast  Level FlightAware Approximate
04:51AM 15.9011 -72.2984 146° Southeast  Level FlightAware Approximate
04:52AM 15.7805 -72.2141 146° Southeast  Level FlightAware Approximate
04:53AM 15.6600 -72.1300 146° Southeast  Level FlightAware Approximate
04:54AM 15.5394 -72.0460 146° Southeast  Level FlightAware Approximate
04:55AM 15.4188 -71.9620 146° Southeast  Level FlightAware Approximate
04:56AM 15.2982 -71.8782 146° Southeast  Level FlightAware Approximate
04:57AM 15.1775 -71.7944 146° Southeast  Level FlightAware Approximate
04:58AM 15.0568 -71.7108 146° Southeast  Level FlightAware Approximate
04:59AM 14.9360 -71.6272 146° Southeast  Level FlightAware Approximate
05:00AM 14.8153 -71.5437 146° Southeast  Level FlightAware Approximate
05:01AM 14.6945 -71.4604 146° Southeast  Level FlightAware Approximate
05:02AM 14.5736 -71.3771 146° Southeast  Level FlightAware Approximate
05:03AM 14.4528 -71.2939 146° Southeast  Level FlightAware Approximate
05:04AM 14.3319 -71.2108 146° Southeast  Level FlightAware Approximate
05:05AM 14.2110 -71.1278 146° Southeast  Level FlightAware Approximate
05:06AM 14.0900 -71.0449 146° Southeast  Level FlightAware Approximate
05:07AM 13.9691 -70.9621 146° Southeast  Level FlightAware Approximate
05:08AM 13.8481 -70.8793 146° Southeast  Level FlightAware Approximate
05:09AM 13.7270 -70.7967 146° Southeast  Level FlightAware Approximate
05:10AM 13.6060 -70.7141 146° Southeast  Level FlightAware Approximate
05:11AM 13.4849 -70.6316 146° Southeast  Level FlightAware Approximate
05:12AM 13.3638 -70.5492 147° Southeast  Level FlightAware Approximate
05:13AM 13.2426 -70.4669 147° Southeast  Level FlightAware Approximate
05:14AM 13.1215 -70.3846 147° Southeast  Level FlightAware Approximate
05:15AM 13.0003 -70.3025 147° Southeast  Level FlightAware Approximate
05:16AM 12.8791 -70.2204 147° Southeast  Level FlightAware Approximate
05:17AM 12.7578 -70.1384 147° Southeast  Level FlightAware Approximate
05:18AM 12.6366 -70.0565 147° Southeast  Level FlightAware Approximate
05:19AM 12.5153 -69.9746 147° Southeast  Level FlightAware Approximate
05:20AM 12.3940 -69.8929 147° Southeast  Level FlightAware Approximate
05:21AM 12.2726 -69.8112 147° Southeast  Level FlightAware Approximate
05:22AM 12.1513 -69.7296 123° Southeast  Level FlightAware Approximate
05:23AM 12.0779 -69.6144 147° Southeast  Level FlightAware Approximate
05:24AM 11.9555 -69.5346 147° Southeast  Level FlightAware Approximate
05:25AM 11.8330 -69.4548 147° Southeast  Level FlightAware Approximate
05:26AM 11.7105 -69.3751 148° Southeast  Level FlightAware Approximate
05:27AM 11.5880 -69.2955 148° Southeast  Level FlightAware Approximate
05:28AM 11.4655 -69.2159 148° Southeast  Level FlightAware Approximate
05:29AM 11.3429 -69.1364 148° Southeast  Level FlightAware Approximate
05:30AM 11.2204 -69.0570 148° Southeast  Level FlightAware Approximate
05:31AM 11.0977 -68.9777 148° Southeast  Level FlightAware Approximate
05:32AM 10.9753 -68.8985 148° Southeast  Level FlightAware Approximate
05:33AM 10.8529 -68.8194 152° Southeast  Level FlightAware Approximate
05:34AM 10.7250 -68.7502 148° Southeast  Level FlightAware Approximate
05:35AM 10.6026 -68.6712 148° Southeast  Level FlightAware Approximate
05:36AM 10.4801 -68.5923 148° Southeast  Level FlightAware Approximate
05:37AM 10.3576 -68.5134 148° Southeast  Level FlightAware Approximate
05:38AM 10.2351 -68.4346 148° Southeast  Level FlightAware Approximate
05:39AM 10.1126 -68.3559 145° Southeast  Level FlightAware Approximate
05:40AM 9.9947 -68.2708 148° Southeast  Level FlightAware Approximate
05:41AM 9.8721 -68.1922 148° Southeast  Level FlightAware Approximate
05:42AM 9.7495 -68.1137 148° Southeast  Level FlightAware Approximate
05:43AM 9.6269 -68.0352 148° Southeast  Level FlightAware Approximate
05:44AM 9.5043 -67.9568 148° Southeast  Level FlightAware Approximate
05:45AM 9.3816 -67.8784 148° Southeast  Level FlightAware Approximate
05:46AM 9.2590 -67.8001 148° Southeast  Level FlightAware Approximate
05:47AM 9.1363 -67.7218 149° Southeast  Level FlightAware Approximate
05:48AM 9.0117 -67.6468 148° Southeast  Level FlightAware Approximate
05:49AM 8.8890 -67.5686 148° Southeast  Level FlightAware Approximate
05:50AM 8.7663 -67.4905 148° Southeast  Level FlightAware Approximate
05:51AM 8.6435 -67.4124 148° Southeast  Level FlightAware Approximate
05:52AM 8.5208 -67.3344 148° Southeast  Level FlightAware Approximate
05:53AM 8.3981 -67.2564 148° Southeast  Level FlightAware Approximate
05:54AM 8.2753 -67.1784 148° Southeast  Level FlightAware Approximate
05:55AM 8.1525 -67.1005 148° Southeast  Level FlightAware Approximate
05:56AM 8.0295 -67.0226 148° Southeast  Level FlightAware Approximate
05:57AM 7.9065 -66.9446 148° Southeast  Level FlightAware Approximate
05:58AM 7.7834 -66.8668 148° Southeast  Level FlightAware Approximate
05:59AM 7.6602 -66.7888 148° Southeast  Level FlightAware Approximate
06:00AM 7.5369 -66.7109 148° Southeast  Level FlightAware Approximate
06:01AM 7.4136 -66.6330 148° Southeast  Level FlightAware Approximate
06:02AM 7.2903 -66.5551 148° Southeast  Level FlightAware Approximate
06:03AM 7.1669 -66.4773 148° Southeast  Level FlightAware Approximate
06:04AM 7.0436 -66.3996 148° Southeast  Level FlightAware Approximate
06:05AM 6.9202 -66.3219 148° Southeast  Level FlightAware Approximate
06:06AM 6.7969 -66.2442 148° Southeast  Level FlightAware Approximate
06:07AM 6.6735 -66.1666 148° Southeast  Level FlightAware Approximate
06:08AM 6.5501 -66.0890 148° Southeast  Level FlightAware Approximate
06:09AM 6.4267 -66.0114 148° Southeast  Level FlightAware Approximate
06:10AM 6.3033 -65.9339 148° Southeast  Level FlightAware Approximate
06:11AM 6.1799 -65.8564 148° Southeast  Level FlightAware Approximate
06:12AM 6.0564 -65.7790 148° Southeast  Level FlightAware Approximate
06:13AM 5.9330 -65.7016 148° Southeast  Level FlightAware Approximate
06:14AM 5.8095 -65.6242 148° Southeast  Level FlightAware Approximate
06:15AM 5.6861 -65.5469 148° Southeast  Level FlightAware Approximate
06:16AM 5.5626 -65.4696 148° Southeast  Level FlightAware Approximate
06:17AM 5.4391 -65.3923 148° Southeast  Level FlightAware Approximate
06:18AM 5.3156 -65.3150 148° Southeast  Level FlightAware Approximate
06:19AM 5.1921 -65.2378 148° Southeast  Level FlightAware Approximate
06:20AM 5.0686 -65.1607 148° Southeast  Level FlightAware Approximate
06:21AM 4.9450 -65.0835 148° Southeast  Level FlightAware Approximate
06:22AM 4.8215 -65.0064 148° Southeast  Level FlightAware Approximate
06:23AM 4.6980 -64.9293 148° Southeast  Level FlightAware Approximate
06:24AM 4.5744 -64.8522 148° Southeast  Level FlightAware Approximate
06:25AM 4.4509 -64.7752 148° Southeast  Level FlightAware Approximate
06:26AM 4.3273 -64.6982 148° Southeast  Level FlightAware Approximate
06:27AM 4.2037 -64.6212 148° Southeast  Level FlightAware Approximate
06:28AM 4.0802 -64.5442 148° Southeast  Level FlightAware Approximate
06:29AM 3.9566 -64.4672 148° Southeast  Level FlightAware Approximate
06:30AM 3.8330 -64.3903 148° Southeast  Level FlightAware Approximate
06:31AM 3.7094 -64.3134 148° Southeast  Level FlightAware Approximate
06:32AM 3.5858 -64.2365 148° Southeast  Level FlightAware Approximate
06:33AM 3.4621 -64.1597 148° Southeast  Level FlightAware Approximate
06:34AM 3.3385 -64.0829 148° Southeast  Level FlightAware Approximate
06:35AM 3.2149 -64.0061 148° Southeast  Level FlightAware Approximate
06:36AM 3.0912 -63.9292 148° Southeast  Level FlightAware Approximate
06:37AM 2.9676 -63.8525 148° Southeast  Level FlightAware Approximate
06:38AM 2.8440 -63.7757 148° Southeast  Level FlightAware Approximate
06:39AM 2.7203 -63.6990 148° Southeast  Level FlightAware Approximate
06:40AM 2.5969 -63.6224 148° Southeast  Level FlightAware Approximate
06:41AM 2.4734 -63.5458 148° Southeast  Level FlightAware Approximate
06:42AM 2.3500 -63.4692 148° Southeast  Level FlightAware Approximate
06:43AM 2.2265 -63.3927 148° Southeast  Level FlightAware Approximate
06:44AM 2.1031 -63.3161 148° Southeast  Level FlightAware Approximate
06:45AM 1.9796 -63.2396 148° Southeast  Level FlightAware Approximate
06:46AM 1.8561 -63.1631 148° Southeast  Level FlightAware Approximate
06:47AM 1.7325 -63.0864 148° Southeast  Level FlightAware Approximate
06:48AM 1.6088 -63.0098 148° Southeast  Level FlightAware Approximate
06:49AM 1.4851 -62.9332 148° Southeast  Level FlightAware Approximate
06:50AM 1.3614 -62.8566 148° Southeast  Level FlightAware Approximate
06:51AM 1.2377 -62.7800 148° Southeast  Level FlightAware Approximate
06:52AM 1.1140 -62.7034 148° Southeast  Level FlightAware Approximate
06:53AM 0.9903 -62.6268 148° Southeast  Level FlightAware Approximate
06:54AM 0.8666 -62.5502 148° Southeast  Level FlightAware Approximate
06:55AM 0.7429 -62.4736 148° Southeast  Level FlightAware Approximate
06:56AM 0.6192 -62.3970 148° Southeast  Level FlightAware Approximate
06:57AM 0.4955 -62.3205 148° Southeast  Level FlightAware Approximate
06:58AM 0.3718 -62.2439 148° Southeast  Level FlightAware Approximate
06:59AM 0.2481 -62.1673 148° Southeast  Level FlightAware Approximate
07:00AM 0.1244 -62.0908 148° Southeast  Level FlightAware Approximate
07:01AM 0.0007 -62.0142 148° Southeast  Level FlightAware Approximate
07:02AM -0.1230 -61.9376 148° Southeast  Level FlightAware Approximate
07:03AM -0.2468 -61.8611 148° Southeast  Level FlightAware Approximate
07:04AM -0.3705 -61.7845 148° Southeast  Level FlightAware Approximate
07:05AM -0.4942 -61.7079 148° Southeast  Level FlightAware Approximate
07:06AM -0.6179 -61.6314 148° Southeast  Level FlightAware Approximate
07:07AM -0.7416 -61.5548 148° Southeast  Level FlightAware Approximate
07:08AM -0.8653 -61.4782 148° Southeast  Level FlightAware Approximate
07:09AM -0.9890 -61.4016 148° Southeast  Level FlightAware Approximate
07:10AM -1.1127 -61.3251 148° Southeast  Level FlightAware Approximate
07:11AM -1.2364 -61.2485 148° Southeast  Level FlightAware Approximate
07:12AM -1.3601 -61.1718 148° Southeast  Level FlightAware Approximate
07:13AM -1.4838 -61.0952 148° Southeast  Level FlightAware Approximate
07:14AM -1.6075 -61.0186 148° Southeast  Level FlightAware Approximate
07:15AM -1.7311 -60.9420 148° Southeast  Level FlightAware Approximate
07:16AM -1.8548 -60.8653 148° Southeast  Level FlightAware Approximate
07:17AM -1.9785 -60.7887 148° Southeast  Level FlightAware Approximate
07:18AM -2.1022 -60.7120 148° Southeast  Level FlightAware Approximate
07:19AM -2.2259 -60.6354 148° Southeast  Level FlightAware Approximate
07:20AM -2.3495 -60.5587 148° Southeast  Level FlightAware Approximate
07:21AM -2.4732 -60.4820 148° Southeast  Level FlightAware Approximate
07:22AM -2.5968 -60.4053 148° Southeast  Level FlightAware Approximate
07:23AM -2.7207 -60.3284 148° Southeast  Level FlightAware Approximate
07:24AM -2.8446 -60.2515 148° Southeast  Level FlightAware Approximate
07:25AM -2.9682 -60.1748 148° Southeast  Level FlightAware Approximate
07:26AM -3.0919 -60.0980 148° Southeast  Level FlightAware Approximate
07:27AM -3.2155 -60.0212 148° Southeast  Level FlightAware Approximate
07:28AM -3.3391 -59.9444 148° Southeast  Level FlightAware Approximate
07:29AM -3.4627 -59.8675 148° Southeast  Level FlightAware Approximate
07:30AM -3.5864 -59.7907 148° Southeast  Level FlightAware Approximate
07:31AM -3.7100 -59.7138 148° Southeast  Level FlightAware Approximate
07:32AM -3.8338 -59.6367 148° Southeast  Level FlightAware Approximate
07:33AM -3.9576 -59.5597 148° Southeast  Level FlightAware Approximate
07:34AM -4.0814 -59.4826 148° Southeast  Level FlightAware Approximate
07:35AM -4.2052 -59.4055 148° Southeast  Level FlightAware Approximate
07:36AM -4.3290 -59.3284 148° Southeast  Level FlightAware Approximate
07:37AM -4.4528 -59.2513 148° Southeast  Level FlightAware Approximate
07:38AM -4.5766 -59.1741 148° Southeast  Level FlightAware Approximate
07:39AM -4.7003 -59.0969 148° Southeast  Level FlightAware Approximate
07:40AM -4.8241 -59.0196 148° Southeast  Level FlightAware Approximate
07:41AM -4.9478 -58.9424 148° Southeast  Level FlightAware Approximate
07:42AM -5.0716 -58.8651 148° Southeast  Level FlightAware Approximate
07:43AM -5.1953 -58.7878 148° Southeast  Level FlightAware Approximate
07:44AM -5.3190 -58.7104 148° Southeast  Level FlightAware Approximate
07:45AM -5.4427 -58.6330 148° Southeast  Level FlightAware Approximate
07:46AM -5.5664 -58.5556 148° Southeast  Level FlightAware Approximate
07:47AM -5.6901 -58.4782 148° Southeast  Level FlightAware Approximate
07:48AM -5.8138 -58.4007 148° Southeast  Level FlightAware Approximate
07:49AM -5.9375 -58.3232 148° Southeast  Level FlightAware Approximate
07:50AM -6.0611 -58.2457 148° Southeast  Level FlightAware Approximate
07:51AM -6.1848 -58.1681 148° Southeast  Level FlightAware Approximate
07:52AM -6.3084 -58.0905 148° Southeast  Level FlightAware Approximate
07:53AM -6.4321 -58.0128 148° Southeast  Level FlightAware Approximate
07:54AM -6.5557 -57.9351 148° Southeast  Level FlightAware Approximate
07:55AM -6.6793 -57.8574 148° Southeast  Level FlightAware Approximate
07:56AM -6.8029 -57.7796 148° Southeast  Level FlightAware Approximate
07:57AM -6.9264 -57.7018 148° Southeast  Level FlightAware Approximate
07:58AM -7.0500 -57.6240 148° Southeast  Level FlightAware Approximate
07:59AM -7.1736 -57.5461 148° Southeast  Level FlightAware Approximate
08:00AM -7.2971 -57.4681 148° Southeast  Level FlightAware Approximate
08:01AM -7.4206 -57.3901 148° Southeast  Level FlightAware Approximate
08:02AM -7.5441 -57.3121 148° Southeast  Level FlightAware Approximate
08:03AM -7.6676 -57.2341 148° Southeast  Level FlightAware Approximate
08:04AM -7.7911 -57.1559 148° Southeast  Level FlightAware Approximate
08:05AM -7.9146 -57.0778 148° Southeast  Level FlightAware Approximate
08:06AM -8.0380 -56.9996 148° Southeast  Level FlightAware Approximate
08:07AM -8.1615 -56.9213 148° Southeast  Level FlightAware Approximate
08:08AM -8.2849 -56.8430 148° Southeast  Level FlightAware Approximate
08:09AM -8.4083 -56.7647 148° Southeast  Level FlightAware Approximate
08:10AM -8.5317 -56.6863 148° Southeast  Level FlightAware Approximate
08:11AM -8.6551 -56.6078 148° Southeast  Level FlightAware Approximate
08:12AM -8.7785 -56.5293 148° Southeast  Level FlightAware Approximate
08:13AM -8.9018 -56.4508 148° Southeast  Level FlightAware Approximate
08:14AM -9.0251 -56.3722 148° Southeast  Level FlightAware Approximate
08:15AM -9.1484 -56.2935 148° Southeast  Level FlightAware Approximate
08:16AM -9.2718 -56.2148 148° Southeast  Level FlightAware Approximate
08:17AM -9.3950 -56.1360 148° Southeast  Level FlightAware Approximate
08:18AM -9.5183 -56.0572 148° Southeast  Level FlightAware Approximate
08:19AM -9.6415 -55.9783 148° Southeast  Level FlightAware Approximate
08:20AM -9.7648 -55.8994 148° Southeast  Level FlightAware Approximate
08:21AM -9.8880 -55.8204 148° Southeast  Level FlightAware Approximate
08:22AM -10.0112 -55.7413 148° Southeast  Level FlightAware Approximate
08:23AM -10.1341 -55.6623 148° Southeast  Level FlightAware Approximate
08:24AM -10.2571 -55.5833 148° Southeast  Level FlightAware Approximate
08:25AM -10.3800 -55.5042 148° Southeast  Level FlightAware Approximate
08:26AM -10.5029 -55.4250 148° Southeast  Level FlightAware Approximate
08:27AM -10.6258 -55.3458 148° Southeast  Level FlightAware Approximate
08:28AM -10.7486 -55.2665 148° Southeast  Level FlightAware Approximate
08:29AM -10.8715 -55.1872 148° Southeast  Level FlightAware Approximate
08:30AM -10.9943 -55.1077 148° Southeast  Level FlightAware Approximate
08:31AM -11.1171 -55.0283 148° Southeast  Level FlightAware Approximate
08:32AM -11.2399 -54.9487 148° Southeast  Level FlightAware Approximate
08:33AM -11.3626 -54.8691 148° Southeast  Level FlightAware Approximate
08:34AM -11.4854 -54.7894 148° Southeast  Level FlightAware Approximate
08:35AM -11.6081 -54.7096 148° Southeast  Level FlightAware Approximate
08:36AM -11.7308 -54.6298 147° Southeast  Level FlightAware Approximate
08:37AM -11.8534 -54.5499 147° Southeast  Level FlightAware Approximate
08:38AM -11.9763 -54.4698 147° Southeast  Level FlightAware Approximate
08:39AM -12.0991 -54.3896 147° Southeast  Level FlightAware Approximate
08:40AM -12.2219 -54.3093 147° Southeast  Level FlightAware Approximate
08:41AM -12.3447 -54.2290 147° Southeast  Level FlightAware Approximate
08:42AM -12.4675 -54.1486 147° Southeast  Level FlightAware Approximate
08:43AM -12.5902 -54.0681 147° Southeast  Level FlightAware Approximate
08:44AM -12.7130 -53.9876 147° Southeast  Level FlightAware Approximate
08:45AM -12.8357 -53.9069 147° Southeast  Level FlightAware Approximate
08:46AM -12.9583 -53.8262 147° Southeast  Level FlightAware Approximate
08:47AM -13.0810 -53.7454 147° Southeast  Level FlightAware Approximate
08:48AM -13.2036 -53.6645 147° Southeast  Level FlightAware Approximate
08:49AM -13.3262 -53.5836 147° Southeast  Level FlightAware Approximate
08:50AM -13.4488 -53.5025 147° Southeast  Level FlightAware Approximate
08:51AM -13.5713 -53.4214 147° Southeast  Level FlightAware Approximate
08:52AM -13.6938 -53.3402 147° Southeast  Level FlightAware Approximate
08:53AM -13.8163 -53.2589 147° Southeast  Level FlightAware Approximate
08:54AM -13.9388 -53.1775 147° Southeast  Level FlightAware Approximate
08:55AM -14.0612 -53.0961 147° Southeast  Level FlightAware Approximate
08:56AM -14.1836 -53.0145 147° Southeast  Level FlightAware Approximate
08:57AM -14.3060 -52.9329 147° Southeast  Level FlightAware Approximate
08:58AM -14.4284 -52.8511 147° Southeast  Level FlightAware Approximate
08:59AM -14.5507 -52.7693 147° Southeast  Level FlightAware Approximate
09:00AM -14.6730 -52.6874 147° Southeast  Level FlightAware Approximate
09:01AM -14.7953 -52.6054 147° Southeast  Level FlightAware Approximate
09:02AM -14.9175 -52.5233 147° Southeast  Level FlightAware Approximate
09:03AM -15.0397 -52.4411 147° Southeast  Level FlightAware Approximate
09:04AM -15.1619 -52.3588 147° Southeast  Level FlightAware Approximate
09:05AM -15.2840 -52.2765 147° Southeast  Level FlightAware Approximate
09:06AM -15.4062 -52.1940 147° Southeast  Level FlightAware Approximate
09:07AM -15.5283 -52.1114 147° Southeast  Level FlightAware Approximate
09:08AM -15.6503 -52.0287 147° Southeast  Level FlightAware Approximate
09:09AM -15.7724 -51.9460 147° Southeast  Level FlightAware Approximate
09:10AM -15.8944 -51.8631 147° Southeast  Level FlightAware Approximate
09:11AM -16.0163 -51.7801 147° Southeast  Level FlightAware Approximate
09:12AM -16.1383 -51.6971 147° Southeast  Level FlightAware Approximate
09:13AM -16.2602 -51.6139 147° Southeast  Level FlightAware Approximate
09:14AM -16.3820 -51.5306 147° Southeast  Level FlightAware Approximate
09:15AM -16.5039 -51.4472 147° Southeast  Level FlightAware Approximate
09:16AM -16.6257 -51.3638 147° Southeast  Level FlightAware Approximate
09:17AM -16.7474 -51.2802 147° Southeast  Level FlightAware Approximate
09:18AM -16.8692 -51.1965 147° Southeast  Level FlightAware Approximate
09:19AM -16.9909 -51.1127 147° Southeast  Level FlightAware Approximate
09:20AM -17.1125 -51.0288 147° Southeast  Level FlightAware Approximate
09:21AM -17.2342 -50.9447 147° Southeast  Level FlightAware Approximate
09:22AM -17.3558 -50.8606 147° Southeast  Level FlightAware Approximate
09:23AM -17.4773 -50.7763 147° Southeast  Level FlightAware Approximate
09:24AM -17.5989 -50.6920 146° Southeast  Level FlightAware Approximate
09:25AM -17.7204 -50.6075 146° Southeast  Level FlightAware Approximate
09:26AM -17.8418 -50.5229 146° Southeast  Level FlightAware Approximate
09:27AM -17.9632 -50.4382 146° Southeast  Level FlightAware Approximate
09:28AM -18.0846 -50.3534 146° Southeast  Level FlightAware Approximate
09:29AM -18.2060 -50.2685 146° Southeast  Level FlightAware Approximate
09:30AM -18.3273 -50.1834 146° Southeast  Level FlightAware Approximate
09:31AM -18.4485 -50.0982 146° Southeast  Level FlightAware Approximate
09:32AM -18.5698 -50.0130 146° Southeast  Level FlightAware Approximate
09:33AM -18.6910 -49.9275 146° Southeast  Level FlightAware Approximate
09:34AM -18.8121 -49.8420 146° Southeast  Level FlightAware Approximate
09:35AM -18.9333 -49.7563 146° Southeast  Level FlightAware Approximate
09:36AM -19.0543 -49.6706 146° Southeast  Level FlightAware Approximate
09:37AM -19.1754 -49.5846 146° Southeast  Level FlightAware Approximate
09:38AM -19.2964 -49.4986 146° Southeast  Level FlightAware Approximate
09:39AM -19.4173 -49.4124 146° Southeast  Level FlightAware Approximate
09:40AM -19.5382 -49.3261 146° Southeast  Level FlightAware Approximate
09:41AM -19.6591 -49.2397 146° Southeast  Level FlightAware Approximate
09:42AM -19.7800 -49.1532 146° Southeast  Level FlightAware Approximate
09:43AM -19.9007 -49.0665 146° Southeast  Level FlightAware Approximate
09:44AM -20.0215 -48.9797 146° Southeast  Level FlightAware Approximate
09:45AM -20.1422 -48.8927 146° Southeast  Level FlightAware Approximate
09:46AM -20.2629 -48.8056 146° Southeast  Level FlightAware Approximate
09:47AM -20.3835 -48.7184 146° Southeast  Level FlightAware Approximate
09:48AM -20.5041 -48.6311 146° Southeast  Level FlightAware Approximate
09:49AM -20.6246 -48.5436 146° Southeast  Level FlightAware Approximate
09:50AM -20.7451 -48.4559 146° Southeast  Level FlightAware Approximate
09:51AM -20.8655 -48.3682 146° Southeast  Level FlightAware Approximate
09:52AM -20.9862 -48.2801 146° Southeast  Level FlightAware Approximate
09:53AM -21.1067 -48.1919 146° Southeast  Level FlightAware Approximate
09:54AM -21.2272 -48.1035 146° Southeast  Level FlightAware Approximate
09:55AM -21.3477 -48.0150 149° Southeast  Level FlightAware Approximate
09:56AM -21.4723 -47.9333 145° Southeast  Level FlightAware Approximate
09:57AM -21.5911 -47.8423 143° Southeast  Level FlightAware Approximate
09:58AM -21.7078 -47.7484 146° Southeast  Level FlightAware Approximate
09:59AM -21.8281 -47.6594 141° Southeast  Level FlightAware Approximate
10:00AM -21.9416 -47.5610 146° Southeast  Level FlightAware Approximate
10:01AM -22.0623 -47.4725 148° Southeast  Level FlightAware Approximate
10:02AM -22.1867 -47.3900 145° Southeast  Level FlightAware Approximate
10:03AM -22.3070 -47.3006 147° Southeast  Level FlightAware Approximate
10:04AM -22.4289 -47.2139 145° Southeast  Level FlightAware Approximate
10:05AM -22.5491 -47.1241 145° Southeast  Level FlightAware Approximate
10:06AM -22.6689 -47.0338 142° Southeast  Level FlightAware Approximate
10:07AM -22.7842 -46.9368 145° Southeast  Level FlightAware Approximate
10:08AM -22.9044 -46.8468 146° Southeast  Level FlightAware Approximate
10:09AM -23.0251 -46.7576 144° Southeast  Level FlightAware Approximate
10:10AM -23.1434 -46.6655 147° Southeast  Level FlightAware Approximate
10:11AM -23.2661 -46.5796 145° Southeast  Level FlightAware Approximate
10:12AM -23.3863 -46.4894 158° South  Level FlightAware Approximate
10:13AM -23.5219 -46.4304 326° Northwest  Level Estimated
10:14AM -22.0064 -47.5162 146° Southeast  Level FlightAware Approximate
10:15AM -22.1270 -47.4274 146° Southeast  Level FlightAware Approximate
10:16AM -22.2475 -47.3385 146° Southeast  Level FlightAware Approximate
10:17AM -22.3681 -47.2495 146° Southeast  Level FlightAware Approximate
10:18AM -22.4885 -47.1603 146° Southeast  Level FlightAware Approximate
10:19AM -22.6090 -47.0709 146° Southeast  Level FlightAware Approximate
10:20AM -22.7293 -46.9814 146° Southeast  Level FlightAware Approximate
10:21AM -22.8497 -46.8917 145° Southeast  Level FlightAware Approximate
10:22AM -22.9699 -46.8018 145° Southeast  Level FlightAware Approximate
10:23AM -23.0904 -46.7117 145° Southeast  Level FlightAware Approximate
10:24AM -23.2108 -46.6214 145° Southeast  Level FlightAware Approximate
10:25AM -23.3311 -46.5309 145° Southeast  Level FlightAware Approximate
10:26AM -23.4167 -46.4667 190° South  Level FlightAware Approximate
10:27AM -23.5611 -46.4933 10° North  Level Estimated
10:28AM -23.4167 -46.4667 190° South  Level FlightAware Approximate
10:29AM -23.5616 -46.4934 190° South  Level Estimated